sensor_id;sensor_type;location;lat;lon;timestamp;P1;durP1;ratioP1;P2;durP2;ratioP2
76155;SDS011;64906;51.290;7.348;2023-05-03T00:00:41;9.38;;;5.22;;
76155;SDS011;64906;51.290;7.348;2023-05-03T00:03:06;10.43;;;5.60;;
76155;SDS011;64906;51.290;7.348;2023-05-03T00:05:32;10.90;;;6.15;;
76155;SDS011;64906;51.290;7.348;2023-05-03T00:07:57;9.47;;;5.90;;
76155;SDS011;64906;51.290;7.348;2023-05-03T00:10:23;10.65;;;5.93;;
76155;SDS011;64906;51.290;7.348;2023-05-03T00:12:48;12.25;;;5.97;;
76155;SDS011;64906;51.290;7.348;2023-05-03T00:15:14;8.93;;;5.33;;
76155;SDS011;64906;51.290;7.348;2023-05-03T00:17:39;10.77;;;6.55;;
76155;SDS011;64906;51.290;7.348;2023-05-03T00:20:05;10.30;;;5.43;;
76155;SDS011;64906;51.290;7.348;2023-05-03T00:22:32;9.43;;;5.57;;
76155;SDS011;64906;51.290;7.348;2023-05-03T00:25:00;9.15;;;5.05;;
76155;SDS011;64906;51.290;7.348;2023-05-03T00:27:26;9.27;;;5.60;;
76155;SDS011;64906;51.290;7.348;2023-05-03T00:29:52;9.38;;;5.32;;
76155;SDS011;64906;51.290;7.348;2023-05-03T00:32:18;10.93;;;6.10;;
76155;SDS011;64906;51.290;7.348;2023-05-03T00:34:45;8.10;;;4.80;;
76155;SDS011;64906;51.290;7.348;2023-05-03T00:37:10;9.47;;;5.27;;
76155;SDS011;64906;51.290;7.348;2023-05-03T00:39:36;10.15;;;5.32;;
76155;SDS011;64906;51.290;7.348;2023-05-03T00:42:01;9.63;;;5.30;;
76155;SDS011;64906;51.290;7.348;2023-05-03T00:44:28;9.02;;;5.30;;
76155;SDS011;64906;51.290;7.348;2023-05-03T00:46:53;8.98;;;5.10;;
76155;SDS011;64906;51.290;7.348;2023-05-03T00:49:19;9.23;;;5.00;;
76155;SDS011;64906;51.290;7.348;2023-05-03T00:51:45;9.02;;;5.28;;
76155;SDS011;64906;51.290;7.348;2023-05-03T00:54:11;8.50;;;4.78;;
76155;SDS011;64906;51.290;7.348;2023-05-03T00:56:36;8.45;;;4.72;;
76155;SDS011;64906;51.290;7.348;2023-05-03T00:59:04;10.20;;;4.88;;
76155;SDS011;64906;51.290;7.348;2023-05-03T01:01:30;8.35;;;4.88;;
76155;SDS011;64906;51.290;7.348;2023-05-03T01:03:56;7.90;;;4.50;;
76155;SDS011;64906;51.290;7.348;2023-05-03T01:06:28;8.93;;;4.53;;
76155;SDS011;64906;51.290;7.348;2023-05-03T01:15:16;10.48;;;5.00;;
76155;SDS011;64906;51.290;7.348;2023-05-03T01:17:48;8.27;;;4.57;;
76155;SDS011;64906;51.290;7.348;2023-05-03T01:20:16;7.80;;;4.50;;
76155;SDS011;64906;51.290;7.348;2023-05-03T01:25:14;7.93;;;4.30;;
76155;SDS011;64906;51.290;7.348;2023-05-03T01:27:41;7.15;;;4.35;;
76155;SDS011;64906;51.290;7.348;2023-05-03T01:30:10;7.75;;;4.47;;
76155;SDS011;64906;51.290;7.348;2023-05-03T01:38:08;8.43;;;4.20;;
76155;SDS011;64906;51.290;7.348;2023-05-03T01:40:37;7.90;;;4.13;;
76155;SDS011;64906;51.290;7.348;2023-05-03T01:43:08;8.27;;;4.43;;
76155;SDS011;64906;51.290;7.348;2023-05-03T01:45:36;7.22;;;3.78;;
76155;SDS011;64906;51.290;7.348;2023-05-03T01:48:01;7.80;;;4.07;;
76155;SDS011;64906;51.290;7.348;2023-05-03T01:50:26;8.10;;;3.88;;
76155;SDS011;64906;51.290;7.348;2023-05-03T01:52:52;7.30;;;4.10;;
76155;SDS011;64906;51.290;7.348;2023-05-03T01:55:17;7.72;;;4.05;;
76155;SDS011;64906;51.290;7.348;2023-05-03T01:57:43;6.60;;;3.90;;
76155;SDS011;64906;51.290;7.348;2023-05-03T02:00:08;7.57;;;4.25;;
76155;SDS011;64906;51.290;7.348;2023-05-03T02:02:34;7.30;;;3.97;;
76155;SDS011;64906;51.290;7.348;2023-05-03T02:04:59;6.87;;;4.00;;
76155;SDS011;64906;51.290;7.348;2023-05-03T02:07:25;6.95;;;4.00;;
76155;SDS011;64906;51.290;7.348;2023-05-03T02:09:50;7.28;;;4.00;;
76155;SDS011;64906;51.290;7.348;2023-05-03T02:12:15;6.97;;;3.80;;
76155;SDS011;64906;51.290;7.348;2023-05-03T02:14:41;7.60;;;3.90;;
76155;SDS011;64906;51.290;7.348;2023-05-03T02:17:06;6.87;;;3.90;;
76155;SDS011;64906;51.290;7.348;2023-05-03T02:19:32;7.13;;;3.90;;
76155;SDS011;64906;51.290;7.348;2023-05-03T02:21:57;7.05;;;3.80;;
76155;SDS011;64906;51.290;7.348;2023-05-03T02:24:23;7.60;;;3.80;;
76155;SDS011;64906;51.290;7.348;2023-05-03T02:26:48;6.93;;;3.93;;
76155;SDS011;64906;51.290;7.348;2023-05-03T02:29:13;6.73;;;3.70;;
76155;SDS011;64906;51.290;7.348;2023-05-03T02:31:38;6.70;;;3.87;;
76155;SDS011;64906;51.290;7.348;2023-05-03T02:34:04;7.65;;;3.70;;
76155;SDS011;64906;51.290;7.348;2023-05-03T02:36:29;7.00;;;3.67;;
76155;SDS011;64906;51.290;7.348;2023-05-03T02:38:55;7.28;;;3.58;;
76155;SDS011;64906;51.290;7.348;2023-05-03T02:41:20;8.00;;;3.92;;
76155;SDS011;64906;51.290;7.348;2023-05-03T02:43:45;6.68;;;4.00;;
76155;SDS011;64906;51.290;7.348;2023-05-03T02:46:11;8.00;;;3.30;;
76155;SDS011;64906;51.290;7.348;2023-05-03T02:48:36;6.57;;;3.87;;
76155;SDS011;64906;51.290;7.348;2023-05-03T02:51:01;6.65;;;3.60;;
76155;SDS011;64906;51.290;7.348;2023-05-03T02:53:27;6.30;;;3.47;;
76155;SDS011;64906;51.290;7.348;2023-05-03T02:55:53;6.40;;;3.58;;
76155;SDS011;64906;51.290;7.348;2023-05-03T02:58:19;6.47;;;3.50;;
76155;SDS011;64906;51.290;7.348;2023-05-03T03:00:44;5.87;;;3.00;;
76155;SDS011;64906;51.290;7.348;2023-05-03T03:03:09;5.50;;;3.10;;
76155;SDS011;64906;51.290;7.348;2023-05-03T03:05:34;6.10;;;3.60;;
76155;SDS011;64906;51.290;7.348;2023-05-03T03:08:00;6.03;;;3.27;;
76155;SDS011;64906;51.290;7.348;2023-05-03T03:10:25;7.50;;;3.33;;
76155;SDS011;64906;51.290;7.348;2023-05-03T03:12:50;6.57;;;3.50;;
76155;SDS011;64906;51.290;7.348;2023-05-03T03:15:15;7.03;;;3.10;;
76155;SDS011;64906;51.290;7.348;2023-05-03T03:17:41;6.43;;;3.37;;
76155;SDS011;64906;51.290;7.348;2023-05-03T03:20:06;5.85;;;3.08;;
76155;SDS011;64906;51.290;7.348;2023-05-03T03:22:37;6.10;;;3.10;;
76155;SDS011;64906;51.290;7.348;2023-05-03T03:25:03;6.18;;;2.95;;
76155;SDS011;64906;51.290;7.348;2023-05-03T03:27:29;7.47;;;3.50;;
76155;SDS011;64906;51.290;7.348;2023-05-03T03:29:54;6.82;;;3.40;;
76155;SDS011;64906;51.290;7.348;2023-05-03T03:32:19;6.20;;;3.60;;
76155;SDS011;64906;51.290;7.348;2023-05-03T03:34:45;5.15;;;2.78;;
76155;SDS011;64906;51.290;7.348;2023-05-03T03:37:11;6.13;;;3.00;;
76155;SDS011;64906;51.290;7.348;2023-05-03T03:39:36;5.20;;;2.93;;
76155;SDS011;64906;51.290;7.348;2023-05-03T03:42:03;5.28;;;2.83;;
76155;SDS011;64906;51.290;7.348;2023-05-03T03:44:29;7.05;;;3.08;;
76155;SDS011;64906;51.290;7.348;2023-05-03T03:46:55;5.83;;;2.80;;
76155;SDS011;64906;51.290;7.348;2023-05-03T03:49:20;5.53;;;2.90;;
76155;SDS011;64906;51.290;7.348;2023-05-03T03:51:45;6.67;;;3.03;;
76155;SDS011;64906;51.290;7.348;2023-05-03T03:54:10;6.60;;;2.80;;
76155;SDS011;64906;51.290;7.348;2023-05-03T03:56:35;5.63;;;2.77;;
76155;SDS011;64906;51.290;7.348;2023-05-03T03:59:01;5.50;;;2.80;;
76155;SDS011;64906;51.290;7.348;2023-05-03T04:01:26;5.67;;;2.70;;
76155;SDS011;64906;51.290;7.348;2023-05-03T04:03:52;4.93;;;2.60;;
76155;SDS011;64906;51.290;7.348;2023-05-03T04:06:17;5.30;;;2.97;;
76155;SDS011;64906;51.290;7.348;2023-05-03T04:08:42;4.73;;;2.70;;
76155;SDS011;64906;51.290;7.348;2023-05-03T04:11:10;6.50;;;2.83;;
76155;SDS011;64906;51.290;7.348;2023-05-03T04:13:39;6.00;;;2.85;;
76155;SDS011;64906;51.290;7.348;2023-05-03T04:16:05;5.55;;;2.78;;
76155;SDS011;64906;51.290;7.348;2023-05-03T04:18:31;5.20;;;2.58;;
76155;SDS011;64906;51.290;7.348;2023-05-03T04:20:56;5.57;;;3.10;;
76155;SDS011;64906;51.290;7.348;2023-05-03T04:23:21;5.87;;;2.90;;
76155;SDS011;64906;51.290;7.348;2023-05-03T04:25:46;5.40;;;2.73;;
76155;SDS011;64906;51.290;7.348;2023-05-03T04:28:12;6.18;;;2.85;;
76155;SDS011;64906;51.290;7.348;2023-05-03T04:30:38;5.55;;;3.00;;
76155;SDS011;64906;51.290;7.348;2023-05-03T04:33:04;5.07;;;2.45;;
76155;SDS011;64906;51.290;7.348;2023-05-03T04:35:29;5.17;;;2.50;;
76155;SDS011;64906;51.290;7.348;2023-05-03T04:37:54;5.50;;;2.47;;
76155;SDS011;64906;51.290;7.348;2023-05-03T04:40:20;4.80;;;2.17;;
76155;SDS011;64906;51.290;7.348;2023-05-03T04:42:45;6.67;;;2.30;;
76155;SDS011;64906;51.290;7.348;2023-05-03T04:45:11;4.90;;;2.50;;
76155;SDS011;64906;51.290;7.348;2023-05-03T04:47:38;5.03;;;2.63;;
76155;SDS011;64906;51.290;7.348;2023-05-03T04:50:04;5.40;;;2.40;;
76155;SDS011;64906;51.290;7.348;2023-05-03T04:52:31;5.15;;;2.47;;
76155;SDS011;64906;51.290;7.348;2023-05-03T04:54:57;7.43;;;2.78;;
76155;SDS011;64906;51.290;7.348;2023-05-03T04:57:22;4.77;;;2.40;;
76155;SDS011;64906;51.290;7.348;2023-05-03T04:59:47;4.47;;;2.13;;
76155;SDS011;64906;51.290;7.348;2023-05-03T05:02:13;5.47;;;2.15;;
76155;SDS011;64906;51.290;7.348;2023-05-03T05:04:39;5.03;;;2.73;;
76155;SDS011;64906;51.290;7.348;2023-05-03T05:07:04;5.88;;;2.75;;
76155;SDS011;64906;51.290;7.348;2023-05-03T05:09:29;4.97;;;2.30;;
76155;SDS011;64906;51.290;7.348;2023-05-03T05:11:55;4.85;;;2.40;;
76155;SDS011;64906;51.290;7.348;2023-05-03T05:14:21;4.78;;;2.42;;
76155;SDS011;64906;51.290;7.348;2023-05-03T05:16:46;4.85;;;2.03;;
76155;SDS011;64906;51.290;7.348;2023-05-03T05:19:12;4.73;;;2.27;;
76155;SDS011;64906;51.290;7.348;2023-05-03T05:21:37;5.43;;;2.53;;
76155;SDS011;64906;51.290;7.348;2023-05-03T05:24:03;5.50;;;2.40;;
76155;SDS011;64906;51.290;7.348;2023-05-03T05:26:29;5.32;;;2.50;;
76155;SDS011;64906;51.290;7.348;2023-05-03T05:28:55;6.00;;;2.55;;
76155;SDS011;64906;51.290;7.348;2023-05-03T05:31:20;4.07;;;2.07;;
76155;SDS011;64906;51.290;7.348;2023-05-03T05:33:46;4.50;;;2.28;;
76155;SDS011;64906;51.290;7.348;2023-05-03T05:36:11;4.85;;;2.15;;
76155;SDS011;64906;51.290;7.348;2023-05-03T05:38:36;4.70;;;2.20;;
76155;SDS011;64906;51.290;7.348;2023-05-03T05:41:02;5.57;;;2.70;;
76155;SDS011;64906;51.290;7.348;2023-05-03T05:43:27;4.37;;;2.07;;
76155;SDS011;64906;51.290;7.348;2023-05-03T05:45:52;4.23;;;1.77;;
76155;SDS011;64906;51.290;7.348;2023-05-03T05:48:18;4.65;;;2.00;;
76155;SDS011;64906;51.290;7.348;2023-05-03T05:50:43;4.05;;;1.98;;
76155;SDS011;64906;51.290;7.348;2023-05-03T05:53:09;4.65;;;2.60;;
76155;SDS011;64906;51.290;7.348;2023-05-03T05:55:34;4.55;;;2.30;;
76155;SDS011;64906;51.290;7.348;2023-05-03T05:58:00;3.75;;;1.90;;
76155;SDS011;64906;51.290;7.348;2023-05-03T06:00:25;4.15;;;2.00;;
76155;SDS011;64906;51.290;7.348;2023-05-03T06:02:50;4.32;;;1.83;;
76155;SDS011;64906;51.290;7.348;2023-05-03T06:05:16;4.63;;;2.20;;
76155;SDS011;64906;51.290;7.348;2023-05-03T06:07:41;3.90;;;1.83;;
76155;SDS011;64906;51.290;7.348;2023-05-03T06:10:07;8.77;;;2.10;;
76155;SDS011;64906;51.290;7.348;2023-05-03T06:12:32;4.70;;;2.17;;
76155;SDS011;64906;51.290;7.348;2023-05-03T06:14:58;4.90;;;1.80;;
76155;SDS011;64906;51.290;7.348;2023-05-03T06:17:23;5.88;;;2.22;;
76155;SDS011;64906;51.290;7.348;2023-05-03T06:19:49;3.97;;;1.98;;
76155;SDS011;64906;51.290;7.348;2023-05-03T06:22:15;4.78;;;2.20;;
76155;SDS011;64906;51.290;7.348;2023-05-03T06:24:40;4.13;;;2.20;;
76155;SDS011;64906;51.290;7.348;2023-05-03T06:27:06;5.53;;;2.45;;
76155;SDS011;64906;51.290;7.348;2023-05-03T06:29:31;4.28;;;2.08;;
76155;SDS011;64906;51.290;7.348;2023-05-03T06:31:56;4.17;;;2.00;;
76155;SDS011;64906;51.290;7.348;2023-05-03T06:34:22;4.97;;;2.30;;
76155;SDS011;64906;51.290;7.348;2023-05-03T06:36:48;5.10;;;2.20;;
76155;SDS011;64906;51.290;7.348;2023-05-03T06:39:13;4.45;;;2.22;;
76155;SDS011;64906;51.290;7.348;2023-05-03T06:41:39;4.30;;;2.03;;
76155;SDS011;64906;51.290;7.348;2023-05-03T06:44:04;4.90;;;2.45;;
76155;SDS011;64906;51.290;7.348;2023-05-03T06:46:31;4.40;;;2.22;;
76155;SDS011;64906;51.290;7.348;2023-05-03T06:48:56;4.75;;;2.30;;
76155;SDS011;64906;51.290;7.348;2023-05-03T06:51:22;5.27;;;2.70;;
76155;SDS011;64906;51.290;7.348;2023-05-03T06:53:52;6.15;;;2.95;;
76155;SDS011;64906;51.290;7.348;2023-05-03T06:56:19;5.93;;;2.75;;
76155;SDS011;64906;51.290;7.348;2023-05-03T06:58:44;6.83;;;3.00;;
76155;SDS011;64906;51.290;7.348;2023-05-03T07:01:09;4.67;;;2.60;;
76155;SDS011;64906;51.290;7.348;2023-05-03T07:03:35;5.13;;;2.80;;
76155;SDS011;64906;51.290;7.348;2023-05-03T07:06:01;5.20;;;2.75;;
76155;SDS011;64906;51.290;7.348;2023-05-03T07:08:26;5.93;;;2.80;;
76155;SDS011;64906;51.290;7.348;2023-05-03T07:10:51;6.20;;;2.90;;
76155;SDS011;64906;51.290;7.348;2023-05-03T07:13:17;6.00;;;3.23;;
76155;SDS011;64906;51.290;7.348;2023-05-03T07:15:42;7.53;;;3.63;;
76155;SDS011;64906;51.290;7.348;2023-05-03T07:18:09;7.10;;;3.70;;
76155;SDS011;64906;51.290;7.348;2023-05-03T07:20:34;6.53;;;3.50;;
76155;SDS011;64906;51.290;7.348;2023-05-03T07:23:00;6.47;;;3.72;;
76155;SDS011;64906;51.290;7.348;2023-05-03T07:25:25;8.57;;;3.58;;
76155;SDS011;64906;51.290;7.348;2023-05-03T07:27:51;7.40;;;3.63;;
76155;SDS011;64906;51.290;7.348;2023-05-03T07:30:16;6.75;;;3.67;;
76155;SDS011;64906;51.290;7.348;2023-05-03T07:32:42;7.75;;;4.03;;
76155;SDS011;64906;51.290;7.348;2023-05-03T07:35:08;6.93;;;3.80;;
76155;SDS011;64906;51.290;7.348;2023-05-03T07:37:33;7.68;;;3.75;;
76155;SDS011;64906;51.290;7.348;2023-05-03T07:39:58;7.27;;;4.13;;
76155;SDS011;64906;51.290;7.348;2023-05-03T07:42:24;8.03;;;4.30;;
76155;SDS011;64906;51.290;7.348;2023-05-03T07:44:49;7.33;;;4.10;;
76155;SDS011;64906;51.290;7.348;2023-05-03T07:47:15;7.43;;;4.00;;
76155;SDS011;64906;51.290;7.348;2023-05-03T07:49:40;7.30;;;3.57;;
76155;SDS011;64906;51.290;7.348;2023-05-03T07:52:06;9.32;;;4.38;;
76155;SDS011;64906;51.290;7.348;2023-05-03T07:54:31;9.10;;;4.13;;
76155;SDS011;64906;51.290;7.348;2023-05-03T07:56:56;8.00;;;4.20;;
76155;SDS011;64906;51.290;7.348;2023-05-03T07:59:21;8.10;;;4.07;;
76155;SDS011;64906;51.290;7.348;2023-05-03T08:01:47;9.32;;;5.07;;
76155;SDS011;64906;51.290;7.348;2023-05-03T08:04:12;8.55;;;4.28;;
76155;SDS011;64906;51.290;7.348;2023-05-03T08:06:38;7.93;;;4.45;;
76155;SDS011;64906;51.290;7.348;2023-05-03T08:09:03;8.87;;;4.87;;
76155;SDS011;64906;51.290;7.348;2023-05-03T08:11:28;8.75;;;4.82;;
76155;SDS011;64906;51.290;7.348;2023-05-03T08:13:54;9.98;;;4.63;;
76155;SDS011;64906;51.290;7.348;2023-05-03T08:16:20;9.73;;;4.90;;
76155;SDS011;64906;51.290;7.348;2023-05-03T08:18:46;7.93;;;4.53;;
76155;SDS011;64906;51.290;7.348;2023-05-03T08:21:11;8.40;;;4.60;;
76155;SDS011;64906;51.290;7.348;2023-05-03T08:23:37;8.07;;;4.70;;
76155;SDS011;64906;51.290;7.348;2023-05-03T08:26:03;7.53;;;4.30;;
76155;SDS011;64906;51.290;7.348;2023-05-03T08:28:31;8.50;;;4.40;;
76155;SDS011;64906;51.290;7.348;2023-05-03T08:30:56;11.20;;;5.03;;
76155;SDS011;64906;51.290;7.348;2023-05-03T08:33:22;11.07;;;6.10;;
76155;SDS011;64906;51.290;7.348;2023-05-03T08:35:47;12.75;;;7.95;;
76155;SDS011;64906;51.290;7.348;2023-05-03T08:38:13;14.30;;;8.73;;
76155;SDS011;64906;51.290;7.348;2023-05-03T08:40:39;16.63;;;8.32;;
76155;SDS011;64906;51.290;7.348;2023-05-03T08:43:08;14.52;;;7.90;;
76155;SDS011;64906;51.290;7.348;2023-05-03T08:45:34;15.55;;;8.73;;
76155;SDS011;64906;51.290;7.348;2023-05-03T08:47:59;16.38;;;8.07;;
76155;SDS011;64906;51.290;7.348;2023-05-03T08:50:28;15.30;;;9.25;;
76155;SDS011;64906;51.290;7.348;2023-05-03T08:52:54;17.48;;;8.35;;
76155;SDS011;64906;51.290;7.348;2023-05-03T08:55:20;14.52;;;8.43;;
76155;SDS011;64906;51.290;7.348;2023-05-03T08:57:45;13.38;;;8.18;;
76155;SDS011;64906;51.290;7.348;2023-05-03T09:00:11;14.70;;;8.98;;
76155;SDS011;64906;51.290;7.348;2023-05-03T09:02:37;14.98;;;8.35;;
76155;SDS011;64906;51.290;7.348;2023-05-03T09:05:49;13.35;;;7.63;;
76155;SDS011;64906;51.290;7.348;2023-05-03T09:07:59;16.20;;;8.30;;
76155;SDS011;64906;51.290;7.348;2023-05-03T09:10:27;16.70;;;8.02;;
76155;SDS011;64906;51.290;7.348;2023-05-03T09:13:02;13.95;;;7.97;;
76155;SDS011;64906;51.290;7.348;2023-05-03T09:15:28;14.00;;;8.10;;
76155;SDS011;64906;51.290;7.348;2023-05-03T09:20:40;13.73;;;7.25;;
76155;SDS011;64906;51.290;7.348;2023-05-03T09:23:09;14.27;;;8.25;;
76155;SDS011;64906;51.290;7.348;2023-05-03T09:25:41;13.45;;;7.70;;
76155;SDS011;64906;51.290;7.348;2023-05-03T09:28:15;14.77;;;8.00;;
76155;SDS011;64906;51.290;7.348;2023-05-03T09:30:42;12.20;;;7.20;;
76155;SDS011;64906;51.290;7.348;2023-05-03T09:33:08;12.85;;;7.80;;
76155;SDS011;64906;51.290;7.348;2023-05-03T09:35:35;13.45;;;7.70;;
76155;SDS011;64906;51.290;7.348;2023-05-03T09:38:01;13.43;;;8.07;;
76155;SDS011;64906;51.290;7.348;2023-05-03T09:40:27;14.07;;;7.90;;
76155;SDS011;64906;51.290;7.348;2023-05-03T09:43:11;17.55;;;9.95;;
76155;SDS011;64906;51.290;7.348;2023-05-03T09:45:38;27.80;;;16.02;;
76155;SDS011;64906;51.290;7.348;2023-05-03T09:48:04;28.13;;;16.70;;
76155;SDS011;64906;51.290;7.348;2023-05-03T09:50:31;26.00;;;15.63;;
76155;SDS011;64906;51.290;7.348;2023-05-03T09:52:59;29.50;;;16.35;;
76155;SDS011;64906;51.290;7.348;2023-05-03T09:55:28;27.38;;;16.27;;
76155;SDS011;64906;51.290;7.348;2023-05-03T09:57:55;27.15;;;15.52;;
76155;SDS011;64906;51.290;7.348;2023-05-03T10:00:21;26.58;;;16.63;;
76155;SDS011;64906;51.290;7.348;2023-05-03T10:02:49;27.00;;;16.25;;
76155;SDS011;64906;51.290;7.348;2023-05-03T10:05:18;23.55;;;14.90;;
76155;SDS011;64906;51.290;7.348;2023-05-03T10:07:47;24.80;;;15.07;;
76155;SDS011;64906;51.290;7.348;2023-05-03T10:10:15;24.02;;;15.10;;
76155;SDS011;64906;51.290;7.348;2023-05-03T10:12:41;26.33;;;15.05;;
76155;SDS011;64906;51.290;7.348;2023-05-03T10:15:08;27.33;;;15.65;;
76155;SDS011;64906;51.290;7.348;2023-05-03T10:17:36;26.17;;;15.43;;
76155;SDS011;64906;51.290;7.348;2023-05-03T10:20:12;27.10;;;15.15;;
76155;SDS011;64906;51.290;7.348;2023-05-03T10:25:29;25.30;;;14.82;;
76155;SDS011;64906;51.290;7.348;2023-05-03T10:30:56;24.73;;;14.77;;
76155;SDS011;64906;51.290;7.348;2023-05-03T10:35:40;24.60;;;15.07;;
76155;SDS011;64906;51.290;7.348;2023-05-03T10:38:20;26.88;;;16.90;;
76155;SDS011;64906;51.290;7.348;2023-05-03T10:40:48;24.27;;;15.25;;
76155;SDS011;64906;51.290;7.348;2023-05-03T10:46:00;25.02;;;15.23;;
76155;SDS011;64906;51.290;7.348;2023-05-03T10:48:27;23.58;;;14.13;;
76155;SDS011;64906;51.290;7.348;2023-05-03T10:50:53;24.77;;;15.45;;
76155;SDS011;64906;51.290;7.348;2023-05-03T10:56:02;26.67;;;15.25;;
76155;SDS011;64906;51.290;7.348;2023-05-03T10:58:47;25.65;;;15.60;;
76155;SDS011;64906;51.290;7.348;2023-05-03T11:01:20;23.00;;;14.93;;
76155;SDS011;64906;51.290;7.348;2023-05-03T11:06:37;23.58;;;14.43;;
76155;SDS011;64906;51.290;7.348;2023-05-03T11:09:06;22.77;;;13.73;;
76155;SDS011;64906;51.290;7.348;2023-05-03T11:11:33;25.92;;;14.65;;
76155;SDS011;64906;51.290;7.348;2023-05-03T11:14:00;23.33;;;15.57;;
76155;SDS011;64906;51.290;7.348;2023-05-03T11:16:25;25.43;;;14.60;;
76155;SDS011;64906;51.290;7.348;2023-05-03T11:18:51;22.98;;;13.95;;
76155;SDS011;64906;51.290;7.348;2023-05-03T11:21:16;24.50;;;15.10;;
76155;SDS011;64906;51.290;7.348;2023-05-03T11:23:43;25.48;;;15.18;;
76155;SDS011;64906;51.290;7.348;2023-05-03T11:26:09;22.42;;;13.98;;
76155;SDS011;64906;51.290;7.348;2023-05-03T11:28:44;24.75;;;14.98;;
76155;SDS011;64906;51.290;7.348;2023-05-03T11:31:10;24.75;;;14.90;;
76155;SDS011;64906;51.290;7.348;2023-05-03T11:33:36;24.25;;;14.30;;
76155;SDS011;64906;51.290;7.348;2023-05-03T11:36:03;23.95;;;16.00;;
76155;SDS011;64906;51.290;7.348;2023-05-03T11:38:30;25.70;;;14.82;;
76155;SDS011;64906;51.290;7.348;2023-05-03T11:40:57;24.08;;;14.65;;
76155;SDS011;64906;51.290;7.348;2023-05-03T11:43:23;27.20;;;15.88;;
76155;SDS011;64906;51.290;7.348;2023-05-03T11:45:49;27.58;;;16.95;;
76155;SDS011;64906;51.290;7.348;2023-05-03T11:48:17;27.20;;;16.75;;
76155;SDS011;64906;51.290;7.348;2023-05-03T11:50:52;27.67;;;16.97;;
76155;SDS011;64906;51.290;7.348;2023-05-03T11:53:22;31.02;;;19.55;;
76155;SDS011;64906;51.290;7.348;2023-05-03T11:55:49;28.42;;;17.55;;
76155;SDS011;64906;51.290;7.348;2023-05-03T11:58:18;30.90;;;17.05;;
76155;SDS011;64906;51.290;7.348;2023-05-03T12:00:47;27.67;;;17.08;;
76155;SDS011;64906;51.290;7.348;2023-05-03T12:05:50;28.33;;;17.33;;
76155;SDS011;64906;51.290;7.348;2023-05-03T12:08:19;27.00;;;15.98;;
76155;SDS011;64906;51.290;7.348;2023-05-03T12:10:45;27.85;;;16.88;;
76155;SDS011;64906;51.290;7.348;2023-05-03T12:13:11;29.08;;;18.05;;
76155;SDS011;64906;51.290;7.348;2023-05-03T12:15:37;30.25;;;17.73;;
76155;SDS011;64906;51.290;7.348;2023-05-03T12:18:07;30.10;;;16.73;;
76155;SDS011;64906;51.290;7.348;2023-05-03T12:20:34;28.83;;;17.17;;
76155;SDS011;64906;51.290;7.348;2023-05-03T12:23:04;29.98;;;17.02;;
76155;SDS011;64906;51.290;7.348;2023-05-03T12:25:32;31.10;;;17.52;;
76155;SDS011;64906;51.290;7.348;2023-05-03T12:27:59;28.55;;;17.35;;
76155;SDS011;64906;51.290;7.348;2023-05-03T12:30:26;26.58;;;17.33;;
76155;SDS011;64906;51.290;7.348;2023-05-03T12:32:52;26.80;;;17.48;;
76155;SDS011;64906;51.290;7.348;2023-05-03T12:35:18;28.90;;;17.93;;
76155;SDS011;64906;51.290;7.348;2023-05-03T12:37:45;30.05;;;18.85;;
76155;SDS011;64906;51.290;7.348;2023-05-03T12:40:12;28.50;;;18.52;;
76155;SDS011;64906;51.290;7.348;2023-05-03T12:42:38;25.88;;;17.33;;
76155;SDS011;64906;51.290;7.348;2023-05-03T12:45:04;29.00;;;17.10;;
76155;SDS011;64906;51.290;7.348;2023-05-03T12:47:30;29.48;;;17.80;;
76155;SDS011;64906;51.290;7.348;2023-05-03T12:49:55;27.75;;;17.13;;
76155;SDS011;64906;51.290;7.348;2023-05-03T12:52:20;27.23;;;16.73;;
76155;SDS011;64906;51.290;7.348;2023-05-03T12:54:46;28.38;;;17.20;;
76155;SDS011;64906;51.290;7.348;2023-05-03T12:57:12;30.98;;;17.90;;
76155;SDS011;64906;51.290;7.348;2023-05-03T12:59:38;28.95;;;17.83;;
76155;SDS011;64906;51.290;7.348;2023-05-03T13:02:05;25.97;;;16.53;;
76155;SDS011;64906;51.290;7.348;2023-05-03T13:04:32;28.42;;;17.35;;
76155;SDS011;64906;51.290;7.348;2023-05-03T13:06:57;25.83;;;15.70;;
76155;SDS011;64906;51.290;7.348;2023-05-03T13:09:23;25.85;;;16.67;;
76155;SDS011;64906;51.290;7.348;2023-05-03T13:11:48;26.73;;;16.63;;
76155;SDS011;64906;51.290;7.348;2023-05-03T13:14:15;25.98;;;16.40;;
76155;SDS011;64906;51.290;7.348;2023-05-03T13:16:41;29.02;;;16.92;;
76155;SDS011;64906;51.290;7.348;2023-05-03T13:19:09;27.65;;;16.75;;
76155;SDS011;64906;51.290;7.348;2023-05-03T13:21:37;25.52;;;15.82;;
76155;SDS011;64906;51.290;7.348;2023-05-03T13:24:03;24.48;;;15.90;;
76155;SDS011;64906;51.290;7.348;2023-05-03T13:26:29;26.15;;;15.88;;
76155;SDS011;64906;51.290;7.348;2023-05-03T13:28:56;25.50;;;15.68;;
76155;SDS011;64906;51.290;7.348;2023-05-03T13:31:21;25.30;;;14.93;;
76155;SDS011;64906;51.290;7.348;2023-05-03T13:33:51;25.50;;;15.98;;
76155;SDS011;64906;51.290;7.348;2023-05-03T13:36:18;25.90;;;15.73;;
76155;SDS011;64906;51.290;7.348;2023-05-03T13:38:47;25.95;;;15.70;;
76155;SDS011;64906;51.290;7.348;2023-05-03T13:41:13;27.67;;;15.50;;
76155;SDS011;64906;51.290;7.348;2023-05-03T13:43:39;26.52;;;16.00;;
76155;SDS011;64906;51.290;7.348;2023-05-03T13:46:06;26.88;;;15.77;;
76155;SDS011;64906;51.290;7.348;2023-05-03T13:48:31;25.48;;;16.27;;
76155;SDS011;64906;51.290;7.348;2023-05-03T13:50:57;24.77;;;15.02;;
76155;SDS011;64906;51.290;7.348;2023-05-03T13:53:22;25.80;;;15.63;;
76155;SDS011;64906;51.290;7.348;2023-05-03T13:55:47;20.83;;;14.30;;
76155;SDS011;64906;51.290;7.348;2023-05-03T13:58:12;23.47;;;14.60;;
76155;SDS011;64906;51.290;7.348;2023-05-03T14:00:38;25.80;;;14.80;;
76155;SDS011;64906;51.290;7.348;2023-05-03T14:03:03;24.90;;;16.30;;
76155;SDS011;64906;51.290;7.348;2023-05-03T14:05:28;22.60;;;14.70;;
76155;SDS011;64906;51.290;7.348;2023-05-03T14:07:53;24.10;;;14.40;;
76155;SDS011;64906;51.290;7.348;2023-05-03T14:10:19;23.27;;;14.53;;
76155;SDS011;64906;51.290;7.348;2023-05-03T14:12:44;24.07;;;14.53;;
76155;SDS011;64906;51.290;7.348;2023-05-03T14:15:09;26.27;;;14.80;;
76155;SDS011;64906;51.290;7.348;2023-05-03T14:17:35;23.40;;;14.52;;
76155;SDS011;64906;51.290;7.348;2023-05-03T14:20:01;23.00;;;14.10;;
76155;SDS011;64906;51.290;7.348;2023-05-03T14:22:26;24.45;;;15.55;;
76155;SDS011;64906;51.290;7.348;2023-05-03T14:24:52;22.98;;;14.23;;
76155;SDS011;64906;51.290;7.348;2023-05-03T14:27:17;22.15;;;13.82;;
76155;SDS011;64906;51.290;7.348;2023-05-03T14:29:48;21.48;;;13.82;;
76155;SDS011;64906;51.290;7.348;2023-05-03T14:32:15;21.13;;;13.93;;
76155;SDS011;64906;51.290;7.348;2023-05-03T14:34:41;23.45;;;13.95;;
76155;SDS011;64906;51.290;7.348;2023-05-03T14:37:07;22.88;;;14.23;;
76155;SDS011;64906;51.290;7.348;2023-05-03T14:39:32;22.08;;;13.20;;
76155;SDS011;64906;51.290;7.348;2023-05-03T14:41:58;20.20;;;13.13;;
76155;SDS011;64906;51.290;7.348;2023-05-03T14:44:23;19.60;;;12.80;;
76155;SDS011;64906;51.290;7.348;2023-05-03T14:46:49;20.52;;;13.13;;
76155;SDS011;64906;51.290;7.348;2023-05-03T14:49:17;19.88;;;12.20;;
76155;SDS011;64906;51.290;7.348;2023-05-03T14:51:42;20.42;;;12.77;;
76155;SDS011;64906;51.290;7.348;2023-05-03T14:54:07;19.63;;;12.93;;
76155;SDS011;64906;51.290;7.348;2023-05-03T14:56:33;18.95;;;12.43;;
76155;SDS011;64906;51.290;7.348;2023-05-03T14:58:58;18.97;;;12.03;;
76155;SDS011;64906;51.290;7.348;2023-05-03T15:01:24;21.15;;;12.85;;
76155;SDS011;64906;51.290;7.348;2023-05-03T15:03:50;20.63;;;12.27;;
76155;SDS011;64906;51.290;7.348;2023-05-03T15:06:26;21.83;;;12.48;;
76155;SDS011;64906;51.290;7.348;2023-05-03T15:08:53;18.80;;;12.18;;